IOLK1: Grand River, Iola

Data processed at Sun May 28 2017 22:37


All information presented herein is the property of the government of the United States of America and may be revised or deleted at any time without prior notice.
Dissemination of this information without the expressed written consent of the Public Affairs Office, Tulsa District U.S. Army Corps of Engineers is strictly prohibited.
These data are gathered electronically and, as presented, have not undergone any form of quality control. These data are not guaranteed to be valid or correct.
Go to home page.
Go to station list.
Go to home page.

Upstream stations:

Downstream station:
Previous Day
Next Day
Current Day
    
SHEF ID:       IOLK1     NEOSHO RIVER NEAR IOLA
STATION TYPE:  

               PRECIP     STAGE  RIV-FLOW  AIR-TEMP  BAT-LOAD
                   in        ft       cfs         F      volt
              Ccp-Rev   Ccp-Rev   Ccp-Rev   Ccp-Rev   Ccp-Rev
(US/Central)
05/28 00:00      0.00      9.89      7760     66.02     12.73
05/28 01:00      0.00      9.89      7760     65.26     12.73
05/28 02:00      0.00      9.89      7760     65.01     12.65
05/28 03:00      0.00      9.91      7840     65.04     12.65
05/28 04:00      0.00      9.94      7970     63.43     12.65
05/28 05:00      0.00      9.89      7760     62.34     12.65
05/28 06:00      0.00      9.93      7930     60.86     12.57
05/28 07:00      0.00      9.89      7760     61.58     12.57
05/28 08:00      0.00      9.90      7800     66.86     12.65
05/28 09:00      0.00      9.89      7760     71.15     13.29
05/28 10:00      0.00      9.90      7800     76.04     13.44
05/28 11:00      0.00      9.92      7890     79.04     13.37
05/28 12:00      0.00      9.91      7840     80.44     13.13
05/28 13:00      0.00      9.92      7890     82.04     13.05
05/28 14:00      0.00      9.93      7930     81.69     13.05
05/28 15:00      0.00      9.88      7720     85.04     13.05
05/28 16:00      0.00      9.90      7800     84.47     13.05
05/28 17:00      0.00      9.89      7760     84.05     13.05
05/28 18:00      0.00      9.90      7800     83.84     12.97
05/28 19:00      0.00      9.90      7800     82.59     12.73
05/28 20:00      0.00      9.91      7840     79.67     12.89
05/28 21:00      0.00      9.89      7760     73.97     12.89
05/28 22:00      ----      ----      ----      ----      ----
05/28 23:00      ----      ----      ----      ----      ----